New Delhi Safdarjung, India

5:52 AM IST on October 02, 2014 (GMT +0530)
New Delhi - GK2 | Change Station
CLOSE
Current Station
Personal Weather Station
Location: New Delhi, Delhi
Elevation: 810 ft
Nearby Weather Stations

Elev 810 ft 28.53 °N, 77.24 °E | Updated 10 seconds ago

Haze
Haze
80.4 °F
Feels Like 85 °F
N
1.0
Wind Variable Wind from SE
Gusts 1.0 mph

Today
High -- | Low -- °F
--% Chance of Precip.
Yesterday
High -- | Low -- °F
Precip. -- in
6:14 AM 6:06 PM
First Quarter, 52% visible
Pressure 29.86 in
Visibility -9999.0 miles
Clouds Scattered Clouds 10000 ft
Heat Index 85 °F
Dew Point 73 °F
Humidity 78%
Rainfall 0.00 in
Snow Depth Not available.
UV 0.0 out of 12
Pollen Not available.
Air Quality Not available.
Flu Activity Not available.
METAR VIDP 012330Z 00000KT 3200 HZ SCT100 27/19 Q1011 BECMG 3000

More Conditions Fewer Conditions

Pressure 29.86 in
Visibility -9999.0 miles
Clouds Scattered Clouds 10000 ft
Heat Index 85 °F
Dew Point 73 °F
Humidity 78%
Rainfall 0.00 in
Snow Depth Not available.
UV 0.0 out of 12
Pollen Not available.
Air Quality Not available.
Flu Activity Not available.
METAR VIDP 012330Z 00000KT 3200 HZ SCT100 27/19 Q1011 BECMG 3000

More Conditions Fewer Conditions

10-Day Weather Forecast

Almanac

Astronomy

Oct. 02, 2014 Rise Set
Actual Time 6:14 AM IST 6:06 PM IST
Civil Twilight 5:50 AM IST 6:29 PM IST
Nautical Twilight 5:23 AM IST 6:57 PM IST
Astronomical Twilight 4:56 AM IST 7:24 PM IST
Moon 1:23 PM IST No Moon Set
Length of Visible Light 12h 38m
Length of Day
11h 51m
Tomorrow will be 1m 41s shorter.
First Quarter, 52% of the Moon is Illuminated
Oct 1
First Quarter
Oct 8
Full
Oct 15
Last Quarter
Oct 23
New
Oct 30
First Quarter

Yesterday's Extremes

Country Highs Country Lows

Community

WunderPhotos

Upload Photos

1,758,097 photos uploaded!

WunderBlogs® & News

Nearby

Snow Depth

Not available.

Earthquake Activity

City Distance Mag. Time & Date
No recent earthquake activity has been reported nearby.
Minimum magnitude displayed is 2.5.

Coastal Water Temperatures

Place Temperature
No Stations Reporting

Nearby Weather Stations